createdAt,value
2019-04-22T00:02:02.428Z,101847.32
2019-04-22T00:12:57.902Z,101841.08
2019-04-22T00:16:32.062Z,101846.33
2019-04-22T00:20:04.347Z,101841.03
2019-04-22T00:23:16.909Z,101833.51
2019-04-22T00:26:23.698Z,101837.08
2019-04-22T00:33:07.810Z,101823.86
2019-04-22T00:36:28.873Z,101820.73
2019-04-22T00:39:40.913Z,101816.31
2019-04-22T00:42:55.390Z,101812.80
2019-04-22T00:50:46.692Z,101815.52
2019-04-22T00:54:21.540Z,101811.98
2019-04-22T00:57:32.379Z,101818.59
2019-04-22T01:00:54.561Z,101814.64
2019-04-22T01:04:04.364Z,101815.53
2019-04-22T01:07:11.531Z,101814.64
2019-04-22T01:10:26.337Z,101812.41
2019-04-22T01:13:30.417Z,101809.33
2019-04-22T01:16:42.977Z,101801.78
2019-04-22T01:20:04.985Z,101800.03
2019-04-22T01:30:43.884Z,101784.55
2019-04-22T01:34:09.967Z,101790.76
2019-04-22T01:37:24.082Z,101788.58
2019-04-22T01:40:50.831Z,101792.55
2019-04-22T01:43:59.068Z,101792.09
2019-04-22T01:51:02.324Z,101781.06
2019-04-22T01:57:31.744Z,101781.06
2019-04-22T02:00:40.257Z,101768.69
2019-04-22T02:04:30.281Z,101774.88
2019-04-22T02:07:42.364Z,101773.11
2019-04-22T02:10:54.624Z,101772.66
2019-04-22T02:14:09.187Z,101771.35
2019-04-22T02:17:21.076Z,101764.75
2019-04-22T02:20:23.094Z,101774.00
2019-04-22T02:26:41.970Z,101769.04
2019-04-22T02:33:21.844Z,101766.79
2019-04-22T02:36:19.311Z,101764.20
2019-04-22T02:39:16.145Z,101763.31
2019-04-22T02:42:14.332Z,101760.28
2019-04-22T02:45:42.480Z,101751.06
2019-04-22T02:51:40.810Z,101744.44
2019-04-22T02:54:55.122Z,101740.45
2019-04-22T02:57:57.688Z,101740.03
2019-04-22T03:01:13.963Z,101740.47
2019-04-22T03:04:22.801Z,101744.00
2019-04-22T03:07:23.481Z,101743.91
2019-04-22T03:10:46.139Z,101735.05
2019-04-22T03:13:46.836Z,101736.34
2019-04-22T03:16:57.824Z,101740.22
2019-04-22T03:20:02.040Z,101742.77
2019-04-22T03:23:16.979Z,101742.75
2019-04-22T03:26:18.808Z,101739.25
2019-04-22T03:29:56.335Z,101736.59
2019-04-22T03:36:05.303Z,101738.06
2019-04-22T03:39:29.685Z,101735.91
2019-04-22T03:42:21.547Z,101737.72
2019-04-22T03:51:49.830Z,101727.22
2019-04-22T04:01:29.563Z,101720.14
2019-04-22T04:07:31.011Z,101720.13
2019-04-22T04:13:41.612Z,101717.48
2019-04-22T04:16:56.202Z,101709.53
2019-04-22T04:23:18.984Z,101722.33
2019-04-22T04:26:18.897Z,101718.34
2019-04-22T04:29:36.254Z,101711.68
2019-04-22T04:32:51.313Z,101720.09
2019-04-22T04:39:10.922Z,101719.23
2019-04-22T04:42:04.734Z,101720.98
2019-04-22T04:45:23.438Z,101720.52
2019-04-22T04:48:15.020Z,101719.61
2019-04-22T04:51:35.342Z,101719.62
2019-04-22T04:54:48.714Z,101723.62
2019-04-22T05:00:58.045Z,101727.11
2019-04-22T05:04:04.709Z,101727.06
2019-04-22T05:07:09.233Z,101726.62
2019-04-22T05:13:39.728Z,101726.95
2019-04-22T05:16:42.786Z,101725.16
2019-04-22T05:22:43.147Z,101731.33
2019-04-22T05:25:40.838Z,101732.97
2019-04-22T05:28:54.555Z,101725.84
2019-04-22T05:32:03.157Z,101732.95
2019-04-22T05:38:20.151Z,101731.09
2019-04-22T05:41:27.217Z,101732.89
2019-04-22T05:44:37.208Z,101731.76
2019-04-22T05:47:42.205Z,101732.70
2019-04-22T05:50:52.654Z,101724.98
2019-04-22T05:53:59.394Z,101735.16
2019-04-22T05:57:07.709Z,101736.06
2019-04-22T06:00:18.367Z,101737.39
2019-04-22T06:03:16.511Z,101738.27
2019-04-22T06:06:32.200Z,101737.19
2019-04-22T06:09:36.830Z,101737.84
2019-04-22T06:12:41.752Z,101736.17
2019-04-22T06:15:52.997Z,101734.36
2019-04-22T06:19:07.456Z,101734.36
2019-04-22T06:22:16.851Z,101732.02
2019-04-22T06:25:27.616Z,101737.17
2019-04-22T06:28:38.773Z,101741.50
2019-04-22T06:31:52.563Z,101749.77
2019-04-22T06:34:54.660Z,101740.17
2019-04-22T06:38:19.138Z,101738.79
2019-04-22T06:41:08.601Z,101742.14
2019-04-22T06:44:22.637Z,101735.34
2019-04-22T06:47:28.677Z,101738.83
2019-04-22T06:50:31.465Z,101741.39
2019-04-22T06:53:34.423Z,101740.48
2019-04-22T06:56:43.132Z,101748.06
2019-04-22T06:59:53.767Z,101747.61
2019-04-22T07:03:27.224Z,101742.82
2019-04-22T07:06:09.495Z,101743.33
2019-04-22T07:12:24.338Z,101744.80
2019-04-22T07:15:46.778Z,101749.11
2019-04-22T07:18:37.306Z,101748.37
2019-04-22T07:21:50.862Z,101750.89
2019-04-22T07:25:13.966Z,101750.30
2019-04-22T07:28:05.084Z,101747.48
2019-04-22T07:31:12.974Z,101743.32
2019-04-22T07:34:29.630Z,101746.44
2019-04-22T07:40:40.507Z,101751.52
2019-04-22T07:44:02.945Z,101749.88
2019-04-22T07:47:00.931Z,101749.88
2019-04-22T07:53:08.340Z,101743.80
2019-04-22T07:56:18.660Z,101750.62
2019-04-22T08:02:39.131Z,101754.09
2019-04-22T08:08:53.535Z,101747.71
2019-04-22T08:15:05.673Z,101746.58
2019-04-22T08:18:17.526Z,101755.89
2019-04-22T08:21:16.295Z,101754.80
2019-04-22T08:24:35.969Z,101751.98
2019-04-22T08:27:47.130Z,101750.92
2019-04-22T08:34:02.073Z,101744.14
2019-04-22T08:40:21.085Z,101737.09
2019-04-22T08:43:26.782Z,101737.09
2019-04-22T08:46:33.997Z,101746.30
2019-04-22T08:49:42.472Z,101741.45
2019-04-22T08:52:55.593Z,101741.28
2019-04-22T08:56:07.825Z,101745.69
2019-04-22T08:59:11.047Z,101729.84
2019-04-22T09:02:17.124Z,101729.84
2019-04-22T09:05:37.366Z,101735.15
2019-04-22T09:08:35.672Z,101732.27
2019-04-22T09:11:44.411Z,101724.90
2019-04-22T09:14:45.618Z,101727.03
2019-04-22T09:21:14.671Z,101725.37
2019-04-22T09:24:10.550Z,101743.52
2019-04-22T09:27:31.769Z,101718.47
2019-04-22T09:30:56.658Z,101717.98
2019-04-22T09:33:53.613Z,101723.91
2019-04-22T09:37:20.429Z,101723.91
2019-04-22T09:40:35.208Z,101721.09
2019-04-22T09:43:32.199Z,101719.30
2019-04-22T09:49:51.956Z,101716.89
2019-04-22T09:52:54.653Z,101717.13
2019-04-22T09:56:03.953Z,101721.87
2019-04-22T09:59:07.587Z,101711.28
2019-04-22T10:02:37.083Z,101715.01
2019-04-22T10:05:30.246Z,101714.21
2019-04-22T10:08:43.546Z,101705.20
2019-04-22T10:14:49.496Z,101715.30
2019-04-22T10:17:56.547Z,101714.23
2019-04-22T10:21:12.744Z,101714.23
2019-04-22T10:24:13.528Z,101703.99
2019-04-22T10:27:20.622Z,101708.72
2019-04-22T10:30:38.343Z,101705.10
2019-04-22T10:33:34.187Z,101709.27
2019-04-22T10:36:21.458Z,101699.19
2019-04-22T10:39:41.199Z,101693.95
2019-04-22T10:42:45.173Z,101699.64
2019-04-22T10:45:52.324Z,101699.64
2019-04-22T10:49:02.116Z,101692.95
2019-04-22T10:52:08.736Z,101693.67
2019-04-22T10:55:15.270Z,101691.16
2019-04-22T10:58:22.897Z,101688.76
2019-04-22T11:01:29.681Z,101678.45
2019-04-22T11:04:36.404Z,101677.45
2019-04-22T11:07:51.343Z,101673.60
2019-04-22T11:11:06.861Z,101672.50
2019-04-22T11:14:01.937Z,101671.99
2019-04-22T11:17:08.961Z,101665.47
2019-04-22T11:20:15.873Z,101663.17
2019-04-22T11:23:22.716Z,101656.73
2019-04-22T11:26:29.926Z,101656.76
2019-04-22T11:29:39.377Z,101658.81
2019-04-22T11:32:46.588Z,101653.95
2019-04-22T11:35:53.368Z,101644.94
2019-04-22T11:39:05.398Z,101653.53
2019-04-22T11:42:10.037Z,101650.62
2019-04-22T11:45:19.907Z,101646.86
2019-04-22T11:48:29.214Z,101644.89
2019-04-22T11:51:36.292Z,101647.65
2019-04-22T11:54:43.245Z,101644.18
2019-04-22T11:57:50.035Z,101641.23
2019-04-22T12:00:57.309Z,101645.76
2019-04-22T12:04:04.593Z,101647.22
2019-04-22T12:07:12.818Z,101647.20
2019-04-22T12:10:29.628Z,101637.74
2019-04-22T12:13:33.689Z,101632.46
2019-04-22T12:16:41.362Z,101640.09
2019-04-22T12:19:52.650Z,101628.27
2019-04-22T12:22:59.056Z,101634.39
2019-04-22T12:26:12.733Z,101622.89
2019-04-22T12:29:17.150Z,101622.91
2019-04-22T12:32:23.277Z,101621.06
2019-04-22T12:35:30.433Z,101617.98
2019-04-22T12:38:37.742Z,101606.83
2019-04-22T12:41:44.393Z,101603.73
2019-04-22T12:44:51.160Z,101600.31
2019-04-22T12:48:04.716Z,101598.89
2019-04-22T12:51:13.278Z,101612.62
2019-04-22T12:54:21.182Z,101597.50
2019-04-22T12:57:28.322Z,101589.42
2019-04-22T13:00:36.313Z,101589.42
2019-04-22T13:03:52.031Z,101573.16
2019-04-22T13:06:59.705Z,101581.87
2019-04-22T13:10:10.270Z,101586.40
2019-04-22T13:13:16.785Z,101575.78
2019-04-22T13:16:23.133Z,101568.20
2019-04-22T13:19:32.226Z,101573.50
2019-04-22T13:22:40.975Z,101558.53
2019-04-22T13:25:49.016Z,101558.53
2019-04-22T13:28:59.079Z,101558.56
2019-04-22T13:32:06.870Z,101549.27
2019-04-22T13:35:15.381Z,101545.75
2019-04-22T13:38:24.858Z,101546.66
2019-04-22T13:41:39.886Z,101540.89
2019-04-22T13:44:39.770Z,101541.93
2019-04-22T13:48:02.992Z,101535.02
2019-04-22T13:51:30.090Z,101534.94
2019-04-22T13:57:58.426Z,101530.08
2019-04-22T14:00:54.393Z,101537.48
2019-04-22T14:04:38.820Z,101537.86
2019-04-22T14:07:53.146Z,101530.19
2019-04-22T14:11:14.916Z,101530.92
2019-04-22T14:14:10.918Z,101518.77
2019-04-22T14:17:29.475Z,101526.73
2019-04-22T14:20:36.847Z,101524.22
2019-04-22T14:27:24.662Z,101525.94
2019-04-22T14:30:22.030Z,101526.66
2019-04-22T14:33:30.178Z,101509.86
2019-04-22T14:36:37.496Z,101521.75
2019-04-22T14:39:48.181Z,101509.34
2019-04-22T14:43:13.810Z,101516.95
2019-04-22T14:46:36.569Z,101503.45
2019-04-22T14:49:36.876Z,101494.44
2019-04-22T14:52:50.657Z,101499.91
2019-04-22T14:55:40.363Z,101494.94
2019-04-22T14:58:47.119Z,101489.19
2019-04-22T15:01:58.055Z,101487.12
2019-04-22T15:08:17.382Z,101490.09
2019-04-22T15:11:28.931Z,101493.97
2019-04-22T15:14:35.519Z,101474.36
2019-04-22T15:18:03.862Z,101491.44
2019-04-22T15:21:14.505Z,101472.98
2019-04-22T15:24:29.531Z,101472.98
2019-04-22T15:27:37.375Z,101467.45
2019-04-22T15:30:44.000Z,101463.30
2019-04-22T15:33:52.390Z,101464.22
2019-04-22T15:37:02.344Z,101459.61
2019-04-22T15:40:13.056Z,101452.02
2019-04-22T15:43:22.761Z,101459.42
2019-04-22T15:46:37.121Z,101459.36
2019-04-22T15:49:45.908Z,101461.02
2019-04-22T15:52:55.550Z,101449.64
2019-04-22T15:56:00.865Z,101454.63
2019-04-22T15:59:28.692Z,101447.78
2019-04-22T16:02:19.491Z,101445.81
2019-04-22T16:05:26.034Z,101455.97
2019-04-22T16:08:35.155Z,101446.17
2019-04-22T16:11:42.282Z,101451.55
2019-04-22T16:14:56.972Z,101445.95
2019-04-22T16:18:10.566Z,101440.01
2019-04-22T16:21:45.496Z,101452.18
2019-04-22T16:25:02.041Z,101444.28
2019-04-22T16:31:47.693Z,101446.84
2019-04-22T16:34:54.699Z,101446.15
2019-04-22T16:38:01.544Z,101445.63
2019-04-22T16:41:10.759Z,101449.78
2019-04-22T16:44:20.557Z,101452.72
2019-04-22T16:47:29.480Z,101459.60
2019-04-22T16:50:56.493Z,101450.48
2019-04-22T16:54:08.546Z,101448.44
2019-04-22T16:57:15.778Z,101461.73
2019-04-22T17:00:22.673Z,101449.88
2019-04-22T17:03:48.812Z,101447.47
2019-04-22T17:06:55.509Z,101450.31
2019-04-22T17:10:02.043Z,101445.84
2019-04-22T17:13:16.863Z,101447.80
2019-04-22T17:16:18.167Z,101440.69
2019-04-22T17:19:27.035Z,101444.77
2019-04-22T17:22:33.604Z,101447.95
2019-04-22T17:25:40.544Z,101450.61
2019-04-22T17:28:47.218Z,101443.37
2019-04-22T17:32:02.996Z,101444.55
2019-04-22T17:35:02.249Z,101446.63
2019-04-22T17:38:16.341Z,101446.63
2019-04-22T17:41:28.605Z,101453.02
2019-04-22T17:44:58.516Z,101453.92
2019-04-22T17:48:23.982Z,101449.61
2019-04-22T17:54:34.001Z,101452.40
2019-04-22T17:57:38.476Z,101452.40
2019-04-22T18:00:56.613Z,101461.78
2019-04-22T18:03:49.753Z,101458.20
2019-04-22T18:07:20.369Z,101453.50
2019-04-22T18:13:38.206Z,101450.92
2019-04-22T18:16:43.152Z,101457.02
2019-04-22T18:19:45.984Z,101458.70
2019-04-22T18:23:12.703Z,101461.23
2019-04-22T18:26:32.277Z,101462.34
2019-04-22T18:29:44.843Z,101459.41
2019-04-22T18:33:03.139Z,101468.46
2019-04-22T18:36:02.581Z,101462.33
2019-04-22T18:39:36.267Z,101464.75
2019-04-22T18:42:23.984Z,101467.34
2019-04-22T18:45:47.469Z,101468.88
2019-04-22T18:48:53.965Z,101471.09
2019-04-22T18:52:19.627Z,101468.03
2019-04-22T18:55:52.986Z,101469.36
2019-04-22T18:58:55.867Z,101475.44
2019-04-22T19:02:14.262Z,101468.70
2019-04-22T19:05:40.104Z,101483.55
2019-04-22T19:09:01.737Z,101479.03
2019-04-22T19:12:24.125Z,101486.58
2019-04-22T19:15:25.237Z,101482.69
2019-04-22T19:18:36.447Z,101486.73
2019-04-22T19:21:43.365Z,101491.82
2019-04-22T19:24:47.333Z,101499.59
2019-04-22T19:31:52.668Z,101489.09
2019-04-22T19:34:57.372Z,101496.91
2019-04-22T19:37:59.910Z,101498.75
2019-04-22T19:41:19.971Z,101503.97
2019-04-22T19:44:36.393Z,101495.58
2019-04-22T19:47:41.869Z,101494.69
2019-04-22T19:51:04.745Z,101490.80
2019-04-22T19:54:12.595Z,101501.23
2019-04-22T19:57:11.607Z,101490.36
2019-04-22T20:00:34.004Z,101486.44
2019-04-22T20:04:28.218Z,101473.51
2019-04-22T20:07:24.829Z,101490.33
2019-04-22T20:10:40.242Z,101478.59
2019-04-22T20:13:49.931Z,101476.64
2019-04-22T20:16:48.934Z,101478.08
2019-04-22T20:20:20.719Z,101481.56
2019-04-22T20:23:33.035Z,101469.47
2019-04-22T20:27:07.062Z,101470.23
2019-04-22T20:30:28.281Z,101478.94
2019-04-22T20:33:46.559Z,101479.73
2019-04-22T20:36:57.004Z,101474.89
2019-04-22T20:39:58.563Z,101476.76
2019-04-22T20:43:25.150Z,101475.27
2019-04-22T20:46:31.876Z,101474.28
2019-04-22T20:49:44.495Z,101478.30
2019-04-22T20:53:11.696Z,101475.81
2019-04-22T20:56:18.899Z,101467.45
2019-04-22T20:59:29.937Z,101468.20
2019-04-22T21:02:31.272Z,101473.63
2019-04-22T21:05:52.630Z,101471.47
2019-04-22T21:09:15.531Z,101464.78
2019-04-22T21:12:13.750Z,101474.63
2019-04-22T21:15:37.440Z,101462.16
2019-04-22T21:18:39.137Z,101470.17
2019-04-22T21:21:57.763Z,101467.06
2019-04-22T21:24:57.566Z,101464.62
2019-04-22T21:28:18.107Z,101463.64
2019-04-22T21:31:23.504Z,101464.47
2019-04-22T21:34:26.378Z,101461.98
2019-04-22T21:37:44.443Z,101463.80
2019-04-22T21:41:12.627Z,101465.36
2019-04-22T21:44:21.225Z,101462.25
2019-04-22T21:47:40.381Z,101454.78
2019-04-22T21:50:54.331Z,101461.48
2019-04-22T21:54:18.291Z,101468.90
2019-04-22T21:58:02.653Z,101462.44
2019-04-22T22:01:29.260Z,101465.39
2019-04-22T22:04:29.188Z,101456.91
2019-04-22T22:07:27.664Z,101462.41
2019-04-22T22:10:51.152Z,101450.88
2019-04-22T22:14:02.386Z,101455.09
2019-04-22T22:17:02.043Z,101446.71
2019-04-22T22:20:21.327Z,101446.17
2019-04-22T22:23:40.823Z,101448.13
2019-04-22T22:27:14.357Z,101455.55
2019-04-22T22:30:48.053Z,101446.89
2019-04-22T22:33:35.532Z,101440.69
2019-04-22T22:36:40.879Z,101446.01
2019-04-22T22:40:03.505Z,101447.16
2019-04-22T22:43:17.272Z,101437.75
2019-04-22T22:46:31.903Z,101433.94
2019-04-22T23:00:01.742Z,101426.56
2019-04-22T23:06:36.991Z,101426.29
2019-04-22T23:09:36.658Z,101427.34
2019-04-22T23:13:08.388Z,101416.09
2019-04-22T23:16:00.821Z,101412.78
2019-04-22T23:19:06.846Z,101418.25
2019-04-22T23:23:06.206Z,101414.67
2019-04-22T23:26:06.629Z,101420.49
2019-04-22T23:29:34.365Z,101406.06
2019-04-22T23:32:39.945Z,101404.39
2019-04-22T23:36:18.670Z,101396.50
2019-04-22T23:39:48.171Z,101398.63
2019-04-22T23:42:52.829Z,101399.73
2019-04-22T23:46:02.278Z,101389.86
2019-04-22T23:49:08.011Z,101393.06
2019-04-22T23:52:30.551Z,101391.22
2019-04-22T23:55:43.619Z,101385.02
2019-04-22T23:59:00.929Z,101377.52
